createdAt,value
2022-12-08T00:01:30.046Z,25.33
2022-12-08T00:03:59.860Z,23.75
2022-12-08T00:06:52.354Z,22.98
2022-12-08T00:09:39.071Z,32.28
2022-12-08T00:12:14.547Z,31.40
2022-12-08T00:14:45.542Z,29.77
2022-12-08T00:17:15.382Z,31.48
2022-12-08T00:19:43.686Z,30.80
2022-12-08T00:22:12.402Z,31.92
2022-12-08T00:24:43.792Z,28.80
2022-12-08T00:27:14.123Z,28.90
2022-12-08T00:29:44.694Z,30.92
2022-12-08T00:32:11.969Z,31.10
2022-12-08T00:34:39.135Z,28.58
2022-12-08T00:37:06.283Z,26.23
2022-12-08T00:39:33.515Z,26.17
2022-12-08T00:42:12.875Z,25.17
2022-12-08T00:44:45.135Z,24.65
2022-12-08T00:47:13.597Z,21.23
2022-12-08T00:49:41.427Z,23.63
2022-12-08T00:52:08.994Z,22.45
2022-12-08T00:54:36.490Z,22.77
2022-12-08T00:57:03.794Z,25.52
2022-12-08T00:59:31.036Z,21.10
2022-12-08T01:01:58.404Z,21.92
2022-12-08T01:04:25.596Z,20.10
2022-12-08T01:06:53.072Z,19.55
2022-12-08T01:09:20.237Z,22.27
2022-12-08T01:11:47.552Z,23.73
2022-12-08T01:14:14.927Z,23.73
2022-12-08T01:16:42.417Z,24.58
2022-12-08T01:19:12.396Z,22.15
2022-12-08T01:21:40.688Z,21.20
2022-12-08T01:24:16.290Z,22.60
2022-12-08T01:26:44.029Z,20.55
2022-12-08T01:29:11.682Z,18.33
2022-12-08T01:31:39.905Z,19.30
2022-12-08T01:34:08.127Z,20.33
2022-12-08T01:36:39.066Z,23.00
2022-12-08T01:39:12.914Z,22.95
2022-12-08T01:41:40.194Z,21.73
2022-12-08T01:44:13.050Z,23.70
2022-12-08T01:46:46.712Z,20.58
2022-12-08T01:49:24.007Z,25.45
2022-12-08T01:52:08.965Z,21.92
2022-12-08T01:54:52.950Z,22.40
2022-12-08T01:57:38.968Z,19.63
2022-12-08T02:00:12.804Z,17.98
2022-12-08T02:02:49.304Z,19.15
2022-12-08T02:05:18.483Z,19.73
2022-12-08T02:07:47.858Z,22.27
2022-12-08T02:10:20.042Z,17.85
2022-12-08T02:12:50.467Z,22.33
2022-12-08T02:15:18.162Z,19.48
2022-12-08T02:18:40.166Z,17.52
2022-12-08T02:21:33.281Z,19.98
2022-12-08T02:24:12.966Z,15.85
2022-12-08T02:27:14.609Z,16.65
2022-12-08T02:29:56.557Z,19.40
2022-12-08T02:32:58.566Z,19.52
2022-12-08T02:35:56.103Z,22.30
2022-12-08T02:38:41.951Z,17.52
2022-12-08T02:41:53.135Z,22.23
2022-12-08T02:45:00.598Z,17.10
2022-12-08T02:47:28.856Z,20.45
2022-12-08T02:49:56.916Z,18.20
2022-12-08T02:52:23.943Z,22.30
2022-12-08T02:55:02.343Z,19.35
2022-12-08T02:57:37.500Z,21.83
2022-12-08T03:00:13.512Z,18.42
2022-12-08T03:03:07.951Z,19.45
2022-12-08T03:05:47.030Z,17.23
2022-12-08T03:08:32.116Z,22.20
2022-12-08T03:11:32.469Z,20.02
2022-12-08T03:14:02.160Z,22.23
2022-12-08T03:16:34.441Z,19.52
2022-12-08T03:19:30.035Z,20.27
2022-12-08T03:22:02.811Z,19.63
2022-12-08T03:24:40.287Z,17.42
2022-12-08T03:27:20.538Z,17.52
2022-12-08T03:29:51.443Z,19.35
2022-12-08T03:32:49.319Z,16.75
2022-12-08T03:35:33.433Z,17.08
2022-12-08T03:38:10.243Z,16.27
2022-12-08T03:40:38.870Z,22.75
2022-12-08T03:43:06.751Z,18.88
2022-12-08T03:45:34.199Z,17.45
2022-12-08T03:48:01.492Z,15.50
2022-12-08T03:50:28.607Z,14.95
2022-12-08T03:52:55.732Z,14.63
2022-12-08T03:55:22.866Z,17.80
2022-12-08T03:57:50.016Z,15.35
2022-12-08T04:00:17.486Z,16.73
2022-12-08T04:02:44.763Z,14.85
2022-12-08T04:05:11.917Z,16.27
2022-12-08T04:07:39.116Z,17.80
2022-12-08T04:10:07.266Z,15.05
2022-12-08T04:12:34.591Z,14.50
2022-12-08T04:15:01.653Z,14.73
2022-12-08T04:17:28.733Z,13.38
2022-12-08T04:19:55.915Z,17.25
2022-12-08T04:22:23.157Z,16.63
2022-12-08T04:24:50.369Z,19.58
2022-12-08T04:27:17.486Z,22.75
2022-12-08T04:29:44.832Z,18.50
2022-12-08T04:32:11.944Z,18.25
2022-12-08T04:34:39.129Z,17.42
2022-12-08T04:37:06.327Z,19.48
2022-12-08T04:39:33.519Z,19.65
2022-12-08T04:42:00.679Z,17.98
2022-12-08T04:44:27.822Z,16.17
2022-12-08T04:46:55.036Z,16.98
2022-12-08T04:49:22.474Z,17.73
2022-12-08T04:51:49.676Z,19.27
2022-12-08T04:54:16.775Z,20.48
2022-12-08T04:56:43.897Z,16.80
2022-12-08T04:59:10.994Z,16.42
2022-12-08T05:01:38.352Z,13.95
2022-12-08T05:04:05.642Z,15.95
2022-12-08T05:06:32.832Z,14.48
2022-12-08T05:08:59.974Z,17.25
2022-12-08T05:11:27.034Z,16.05
2022-12-08T05:13:54.218Z,15.90
2022-12-08T05:16:21.381Z,13.57
2022-12-08T05:18:48.578Z,13.90
2022-12-08T05:21:15.800Z,11.90
2022-12-08T05:23:43.155Z,14.18
2022-12-08T05:26:10.494Z,11.73
2022-12-08T05:28:42.219Z,12.25
2022-12-08T05:31:15.631Z,12.20
2022-12-08T05:33:44.781Z,14.40
2022-12-08T05:36:14.425Z,11.00
2022-12-08T05:41:17.920Z,12.75
2022-12-08T05:43:46.204Z,14.15
2022-12-08T05:46:13.735Z,14.65
2022-12-08T05:48:40.928Z,17.40
2022-12-08T05:51:19.466Z,21.17
2022-12-08T05:53:48.772Z,23.02
2022-12-08T05:56:17.243Z,21.13
2022-12-08T05:58:45.347Z,17.75
2022-12-08T06:01:24.439Z,20.75
2022-12-08T06:03:52.595Z,21.60
2022-12-08T06:06:20.695Z,32.15
2022-12-08T06:08:47.961Z,17.75
2022-12-08T06:11:28.619Z,16.30
2022-12-08T06:13:56.763Z,17.73
2022-12-08T06:16:26.106Z,18.08
2022-12-08T06:18:54.148Z,16.92
2022-12-08T06:21:21.599Z,17.33
2022-12-08T06:23:51.939Z,15.65
2022-12-08T06:26:19.838Z,21.05
2022-12-08T06:28:47.130Z,16.88
2022-12-08T06:31:19.983Z,19.15
2022-12-08T06:33:48.255Z,15.55
2022-12-08T06:36:18.459Z,18.80
2022-12-08T06:38:46.136Z,16.65
2022-12-08T06:41:14.125Z,19.92
2022-12-08T06:43:41.922Z,12.57
2022-12-08T06:46:17.441Z,16.90
2022-12-08T06:48:44.798Z,16.38
2022-12-08T06:51:15.908Z,17.75
2022-12-08T06:53:44.412Z,20.67
2022-12-08T06:56:12.988Z,15.77
2022-12-08T06:58:45.060Z,16.08
2022-12-08T07:01:16.176Z,16.13
2022-12-08T07:03:43.732Z,16.67
2022-12-08T07:06:16.306Z,15.82
2022-12-08T07:08:43.650Z,15.15
2022-12-08T07:11:14.201Z,16.10
2022-12-08T07:13:43.911Z,15.50
2022-12-08T07:16:12.634Z,20.67
2022-12-08T07:18:41.006Z,20.70
2022-12-08T07:21:11.730Z,24.90
2022-12-08T07:23:39.043Z,29.38
2022-12-08T07:26:07.941Z,24.58
2022-12-08T07:28:38.058Z,21.13
2022-12-08T07:31:06.769Z,23.35
2022-12-08T07:33:35.568Z,31.10
2022-12-08T07:36:06.046Z,24.70
2022-12-08T07:38:33.747Z,20.58
2022-12-08T07:41:01.097Z,19.17
2022-12-08T07:43:28.552Z,21.15
2022-12-08T07:45:55.826Z,21.08
2022-12-08T07:48:23.239Z,21.73
2022-12-08T07:50:50.439Z,20.35
2022-12-08T07:53:17.581Z,21.65
2022-12-08T07:55:44.939Z,16.15
2022-12-08T07:58:12.160Z,20.40
2022-12-08T08:00:39.569Z,19.45
2022-12-08T08:03:08.317Z,21.98
2022-12-08T08:05:35.564Z,23.00
2022-12-08T08:08:03.202Z,19.50
2022-12-08T08:10:30.788Z,20.95
2022-12-08T08:13:01.330Z,20.35
2022-12-08T08:15:30.174Z,22.33
2022-12-08T08:17:57.455Z,18.40
2022-12-08T08:20:24.685Z,19.60
2022-12-08T08:22:52.251Z,18.30
2022-12-08T08:25:23.936Z,19.63
2022-12-08T08:27:51.299Z,18.25
2022-12-08T08:30:20.999Z,13.45
2022-12-08T08:32:49.682Z,16.23
2022-12-08T08:35:17.189Z,15.77
2022-12-08T08:37:48.522Z,12.68
2022-12-08T08:40:17.573Z,11.18
2022-12-08T08:42:44.847Z,14.00
2022-12-08T08:45:12.207Z,11.57
2022-12-08T08:47:39.408Z,15.30
2022-12-08T08:50:07.867Z,12.48
2022-12-08T08:52:35.375Z,9.57
2022-12-08T08:55:02.918Z,11.10
2022-12-08T08:57:30.053Z,7.93
2022-12-08T08:59:57.168Z,10.10
2022-12-08T09:02:24.829Z,11.23
2022-12-08T09:04:52.177Z,8.88
2022-12-08T09:07:19.388Z,8.55
2022-12-08T09:09:46.844Z,10.18
2022-12-08T09:12:14.281Z,9.80
2022-12-08T09:14:41.503Z,10.07
2022-12-08T09:17:09.066Z,14.45
2022-12-08T09:19:36.315Z,13.57
2022-12-08T09:22:04.391Z,12.57
2022-12-08T09:24:31.599Z,11.32
2022-12-08T09:26:58.880Z,13.48
2022-12-08T09:29:28.754Z,11.85
2022-12-08T09:31:59.791Z,10.52
2022-12-08T09:34:26.991Z,9.70
2022-12-08T09:36:54.242Z,9.23
2022-12-08T09:39:21.498Z,10.77
2022-12-08T09:41:59.807Z,10.73
2022-12-08T09:44:56.678Z,8.43
2022-12-08T09:47:38.662Z,8.80
2022-12-08T09:50:32.873Z,9.25
2022-12-08T09:53:19.230Z,10.20
2022-12-08T09:55:55.947Z,12.90
2022-12-08T09:58:43.747Z,12.23
2022-12-08T10:01:11.734Z,10.35
2022-12-08T10:03:39.917Z,11.02
2022-12-08T10:06:47.288Z,8.02
2022-12-08T10:09:29.472Z,9.05
2022-12-08T10:12:08.304Z,11.60
2022-12-08T10:14:45.024Z,12.50
2022-12-08T10:17:44.171Z,12.10
2022-12-08T10:20:24.726Z,11.00
2022-12-08T10:23:29.704Z,14.10
2022-12-08T10:26:03.283Z,13.05
2022-12-08T10:28:32.833Z,12.90
2022-12-08T10:31:00.320Z,14.15
2022-12-08T10:33:31.619Z,18.33
2022-12-08T10:36:02.502Z,12.45
2022-12-08T10:38:33.283Z,14.18
2022-12-08T10:41:09.631Z,16.73
2022-12-08T10:43:47.067Z,12.75
2022-12-08T10:46:19.039Z,13.25
2022-12-08T10:48:53.631Z,14.35
2022-12-08T10:51:34.162Z,11.77
2022-12-08T10:54:01.538Z,11.65
2022-12-08T10:56:31.104Z,11.40
2022-12-08T11:01:50.827Z,12.35
2022-12-08T11:04:21.871Z,13.38
2022-12-08T11:06:51.354Z,14.63
2022-12-08T11:09:18.602Z,17.70
2022-12-08T11:12:06.614Z,16.50
2022-12-08T11:15:02.510Z,18.85
2022-12-08T11:17:40.686Z,17.77
2022-12-08T11:20:10.865Z,18.00
2022-12-08T11:23:00.990Z,16.75
2022-12-08T11:25:28.315Z,18.20
2022-12-08T11:28:01.131Z,14.35
2022-12-08T11:30:37.026Z,14.18
2022-12-08T11:33:26.675Z,17.15
2022-12-08T11:36:09.639Z,22.33
2022-12-08T11:38:43.580Z,17.73
2022-12-08T11:41:18.235Z,21.15
2022-12-08T11:44:40.432Z,22.58
2022-12-08T11:47:31.020Z,18.35
2022-12-08T11:50:42.224Z,19.02
2022-12-08T11:53:38.014Z,19.10
2022-12-08T11:56:36.827Z,20.38
2022-12-08T11:59:37.540Z,19.13
2022-12-08T12:02:11.453Z,18.10
2022-12-08T12:04:44.310Z,18.67
2022-12-08T12:08:03.209Z,18.02
2022-12-08T12:11:10.499Z,19.70
2022-12-08T12:14:00.427Z,19.27
2022-12-08T12:17:05.811Z,23.08
2022-12-08T12:19:38.623Z,18.67
2022-12-08T12:22:17.413Z,20.95
2022-12-08T12:24:49.795Z,20.58
2022-12-08T12:27:32.331Z,25.02
2022-12-08T12:30:33.588Z,21.10
2022-12-08T12:33:02.107Z,22.20
2022-12-08T12:35:32.114Z,21.20
2022-12-08T12:38:28.487Z,21.92
2022-12-08T12:41:02.161Z,21.25
2022-12-08T12:43:35.555Z,22.38
2022-12-08T12:46:24.688Z,23.10
2022-12-08T12:48:52.653Z,23.83
2022-12-08T12:51:38.719Z,23.63
2022-12-08T12:54:24.356Z,31.63
2022-12-08T12:56:55.630Z,26.67
2022-12-08T12:59:44.158Z,21.98
2022-12-08T13:02:27.924Z,21.08
2022-12-08T13:05:26.186Z,19.42
2022-12-08T13:07:53.384Z,16.98
2022-12-08T13:10:25.470Z,20.65
2022-12-08T13:13:10.058Z,23.50
2022-12-08T13:16:18.507Z,21.70
2022-12-08T13:19:03.318Z,21.15
2022-12-08T13:21:37.701Z,24.33
2022-12-08T13:24:13.477Z,23.73
2022-12-08T13:26:47.124Z,23.38
2022-12-08T13:29:25.685Z,18.83
2022-12-08T13:31:54.036Z,24.75
2022-12-08T13:34:41.537Z,18.45
2022-12-08T13:37:11.795Z,18.95
2022-12-08T13:39:38.838Z,24.85
2022-12-08T13:42:12.206Z,31.20
2022-12-08T13:45:30.137Z,20.88
2022-12-08T13:57:33.155Z,27.45
2022-12-08T14:00:15.660Z,23.65
2022-12-08T14:02:48.374Z,24.55
2022-12-08T14:05:29.778Z,39.55
2022-12-08T14:11:35.922Z,31.13
2022-12-08T14:15:02.562Z,31.75
2022-12-08T14:17:21.739Z,28.83
2022-12-08T14:22:41.052Z,39.58
2022-12-08T14:25:16.615Z,31.10
2022-12-08T14:27:44.653Z,32.00
2022-12-08T14:30:41.908Z,31.90
2022-12-08T14:33:16.464Z,29.63
2022-12-08T14:35:50.882Z,21.67
2022-12-08T14:38:20.545Z,25.88
2022-12-08T14:41:02.334Z,25.88
2022-12-08T14:43:31.391Z,26.58
2022-12-08T14:46:22.664Z,29.27
2022-12-08T14:48:50.063Z,27.38
2022-12-08T14:51:20.474Z,26.73
2022-12-08T14:54:00.530Z,30.35
2022-12-08T14:56:51.105Z,33.83
2022-12-08T14:59:30.083Z,28.40
2022-12-08T15:02:15.615Z,34.05
2022-12-08T15:04:46.994Z,32.40
2022-12-08T15:07:14.693Z,28.65
2022-12-08T15:09:49.457Z,27.85
2022-12-08T15:12:27.542Z,23.73
2022-12-08T15:15:01.275Z,21.95
2022-12-08T15:17:51.037Z,17.55
2022-12-08T15:20:35.060Z,23.48
2022-12-08T15:23:03.393Z,21.00
2022-12-08T15:25:31.504Z,22.52
2022-12-08T15:27:58.819Z,26.70
2022-12-08T15:30:26.403Z,25.02
2022-12-08T15:32:55.422Z,29.55
2022-12-08T15:35:22.727Z,23.77
2022-12-08T15:37:50.082Z,24.90
2022-12-08T15:40:22.239Z,29.23
2022-12-08T15:42:49.599Z,37.42
2022-12-08T15:45:17.565Z,25.55
2022-12-08T15:47:45.501Z,23.60
2022-12-08T15:50:19.414Z,25.05
2022-12-08T15:52:47.504Z,28.83
2022-12-08T15:55:19.530Z,29.40
2022-12-08T16:00:55.055Z,22.50
2022-12-08T16:09:52.001Z,20.02
2022-12-08T16:13:48.274Z,19.75
2022-12-08T16:15:51.754Z,20.67
2022-12-08T16:18:27.016Z,20.42
2022-12-08T16:21:31.499Z,24.75
2022-12-08T16:23:45.512Z,20.92
2022-12-08T16:26:35.470Z,10.10
2022-12-08T16:29:05.541Z,11.90
2022-12-08T16:31:33.356Z,12.63
2022-12-08T16:34:00.848Z,10.13
2022-12-08T16:36:28.561Z,14.77
2022-12-08T16:38:56.050Z,22.08
2022-12-08T16:41:42.818Z,22.88
2022-12-08T16:44:10.418Z,17.83
2022-12-08T16:46:38.743Z,22.02
2022-12-08T16:49:08.747Z,28.25
2022-12-08T16:51:36.118Z,24.77
2022-12-08T16:54:04.142Z,20.48
2022-12-08T16:56:33.387Z,13.15
2022-12-08T16:59:02.102Z,15.10
2022-12-08T17:01:29.960Z,20.63
2022-12-08T17:06:45.093Z,17.15
2022-12-08T17:09:12.753Z,17.52
2022-12-08T17:11:43.446Z,28.60
2022-12-08T17:14:15.136Z,25.55
2022-12-08T17:16:43.908Z,26.35
2022-12-08T17:19:15.294Z,23.08
2022-12-08T17:21:44.360Z,20.90
2022-12-08T17:24:14.626Z,19.75
2022-12-08T17:26:43.254Z,29.10
2022-12-08T17:29:10.498Z,34.05
2022-12-08T17:31:37.932Z,27.60
2022-12-08T17:34:10.526Z,26.25
2022-12-08T17:36:37.850Z,21.60
2022-12-08T17:39:05.823Z,21.08
2022-12-08T17:41:33.020Z,24.98
2022-12-08T17:44:00.505Z,26.13
2022-12-08T17:46:28.114Z,32.80
2022-12-08T17:48:55.766Z,27.60
2022-12-08T17:51:23.140Z,27.80
2022-12-08T17:53:50.867Z,22.67
2022-12-08T17:56:20.912Z,23.25
2022-12-08T17:58:52.841Z,64.13
2022-12-08T18:01:23.578Z,36.65
2022-12-08T18:03:51.309Z,35.00
2022-12-08T18:06:18.903Z,32.30
2022-12-08T18:08:46.222Z,27.83
2022-12-08T18:11:18.862Z,30.17
2022-12-08T18:13:48.420Z,30.20
2022-12-08T18:16:17.904Z,29.02
2022-12-08T18:18:45.217Z,42.92
2022-12-08T18:21:12.659Z,46.10
2022-12-08T18:23:42.132Z,46.25
2022-12-08T18:26:13.285Z,54.60
2022-12-08T18:28:41.433Z,58.35
2022-12-08T18:31:14.650Z,58.88
2022-12-08T18:33:44.212Z,55.30
2022-12-08T18:36:18.214Z,55.92
2022-12-08T18:38:46.382Z,53.88
2022-12-08T18:41:22.829Z,62.22
2022-12-08T18:43:50.333Z,63.13
2022-12-08T18:46:17.884Z,71.47
2022-12-08T18:48:48.608Z,81.55
2022-12-08T18:51:23.731Z,74.97
2022-12-08T18:53:52.319Z,84.78
2022-12-08T18:56:28.171Z,82.50
2022-12-08T18:59:02.873Z,81.53
2022-12-08T19:01:37.263Z,84.82
2022-12-08T19:06:56.634Z,85.60
2022-12-08T19:09:26.112Z,106.38
2022-12-08T19:11:53.412Z,149.15
2022-12-08T19:14:27.476Z,84.53
2022-12-08T19:16:57.153Z,105.43
2022-12-08T19:19:26.477Z,103.17
2022-12-08T19:21:54.428Z,134.77
2022-12-08T19:24:22.320Z,95.72
2022-12-08T19:26:50.067Z,90.95
2022-12-08T19:29:17.643Z,79.13
2022-12-08T19:31:45.039Z,105.03
2022-12-08T19:34:13.880Z,80.03
2022-12-08T19:36:42.614Z,80.93
2022-12-08T19:39:41.662Z,88.90
2022-12-08T19:42:36.789Z,91.17
2022-12-08T19:45:11.273Z,114.53
2022-12-08T19:47:39.860Z,98.30
2022-12-08T19:50:27.818Z,77.50
2022-12-08T19:52:55.574Z,74.90
2022-12-08T19:55:23.688Z,59.88
2022-12-08T19:57:52.434Z,43.30
2022-12-08T20:00:20.785Z,53.13
2022-12-08T20:02:48.504Z,49.80
2022-12-08T20:05:16.028Z,46.78
2022-12-08T20:07:43.740Z,42.83
2022-12-08T20:10:22.368Z,41.75
2022-12-08T20:12:49.752Z,47.25
2022-12-08T20:15:17.169Z,37.75
2022-12-08T20:17:44.621Z,35.50
2022-12-08T20:20:13.559Z,28.85
2022-12-08T20:22:41.069Z,81.35
2022-12-08T20:25:12.741Z,42.25
2022-12-08T20:27:40.919Z,28.25
2022-12-08T20:30:15.064Z,32.38
2022-12-08T20:32:44.923Z,30.10
2022-12-08T20:35:12.667Z,26.08
2022-12-08T20:37:39.953Z,28.05
2022-12-08T20:40:08.211Z,35.08
2022-12-08T20:42:35.385Z,29.95
2022-12-08T20:45:05.808Z,30.55
2022-12-08T20:47:34.338Z,31.58
2022-12-08T20:50:02.852Z,24.50
2022-12-08T20:52:30.529Z,32.28
2022-12-08T20:54:57.952Z,24.83
2022-12-08T20:57:25.479Z,25.23
2022-12-08T20:59:52.835Z,25.27
2022-12-08T21:02:20.370Z,25.45
2022-12-08T21:04:47.876Z,28.05
2022-12-08T21:07:15.538Z,26.58
2022-12-08T21:09:43.332Z,29.55
2022-12-08T21:12:11.381Z,26.67
2022-12-08T21:14:39.894Z,18.60
2022-12-08T21:17:07.651Z,22.25
2022-12-08T21:19:35.345Z,17.83
2022-12-08T21:22:03.098Z,23.02
2022-12-08T21:24:34.371Z,20.70
2022-12-08T21:27:02.233Z,17.88
2022-12-08T21:29:29.895Z,18.90
2022-12-08T21:31:59.641Z,12.52
2022-12-08T21:36:58.456Z,12.73
2022-12-08T21:39:26.442Z,14.00
2022-12-08T21:42:12.440Z,13.85
2022-12-08T21:44:40.095Z,15.05
2022-12-08T21:47:08.437Z,11.35
2022-12-08T21:49:35.738Z,12.32
2022-12-08T21:52:03.331Z,12.10
2022-12-08T21:54:30.912Z,15.65
2022-12-08T21:56:58.108Z,14.80
2022-12-08T21:59:25.384Z,11.80
2022-12-08T22:01:52.779Z,12.70
2022-12-08T22:04:21.177Z,11.82
2022-12-08T22:06:48.794Z,15.43
2022-12-08T22:09:16.383Z,15.13
2022-12-08T22:11:44.183Z,13.10
2022-12-08T22:14:14.932Z,14.50
2022-12-08T22:16:43.845Z,17.33
2022-12-08T22:19:12.019Z,14.52
2022-12-08T22:21:39.212Z,15.82
2022-12-08T22:24:06.818Z,16.05
2022-12-08T22:26:34.446Z,16.00
2022-12-08T22:29:02.073Z,27.02
2022-12-08T22:31:29.846Z,19.45
2022-12-08T22:33:58.887Z,17.13
2022-12-08T22:36:27.643Z,18.35
2022-12-08T22:38:54.919Z,17.05
2022-12-08T22:41:22.779Z,45.05
2022-12-08T22:43:50.822Z,19.05
2022-12-08T22:46:25.209Z,20.83
2022-12-08T22:48:54.164Z,17.98
2022-12-08T22:51:21.577Z,17.65
2022-12-08T22:53:49.008Z,17.45
2022-12-08T22:56:18.114Z,15.40
2022-12-08T22:58:45.649Z,15.90
2022-12-08T23:01:30.292Z,18.52
2022-12-08T23:03:58.830Z,17.83
2022-12-08T23:06:27.468Z,18.10
2022-12-08T23:08:56.259Z,16.35
2022-12-08T23:11:28.728Z,15.70
2022-12-08T23:13:59.684Z,18.38
2022-12-08T23:16:27.186Z,13.75
2022-12-08T23:18:55.035Z,15.10
2022-12-08T23:21:22.418Z,16.40
2022-12-08T23:23:49.666Z,16.10
2022-12-08T23:26:26.220Z,12.25
2022-12-08T23:28:54.517Z,14.55
2022-12-08T23:31:22.923Z,12.30
2022-12-08T23:33:51.134Z,14.95
2022-12-08T23:36:20.926Z,13.20
2022-12-08T23:38:48.253Z,14.00
2022-12-08T23:41:16.035Z,17.48
2022-12-08T23:43:46.736Z,19.15
2022-12-08T23:46:16.319Z,14.85
2022-12-08T23:48:44.659Z,15.43
2022-12-08T23:51:12.672Z,13.02
2022-12-08T23:53:40.606Z,18.67
2022-12-08T23:56:12.176Z,13.00
2022-12-08T23:58:40.230Z,12.13
